Time;durP1;ratioP1;P1;durP2;ratioP2;P2;SDS_P1;SDS_P2;PMS_P1;PMS_P2;Temp;Humidity;BMP_temperature;BMP_pressure;BME280_temperature;BME280_humidity;BME280_pressure;Samples;Min_cycle;Max_cycle;Signal;HPM_P1;HPM_P2
2023/06/27 00:00:16;;;;;;;12.00;7.90;;;24.10;73.10;;;;;;5044366;28;20220;-63
2023/06/27 00:02:47;;;;;;;9.70;6.93;;;24.00;73.00;;;;;;5041783;28;20545;-63
2023/06/27 00:05:14;;;;;;;10.40;7.57;;;24.00;73.10;;;;;;5049674;28;20625;-63
2023/06/27 00:07:44;;;;;;;9.93;7.83;;;24.00;73.40;;;;;;5044731;28;20198;-63
2023/06/27 00:10:11;;;;;;;11.97;7.70;;;23.90;73.60;;;;;;5044568;28;20204;-63
2023/06/27 00:12:38;;;;;;;10.70;7.27;;;23.90;73.70;;;;;;5046415;28;20194;-63
2023/06/27 00:15:06;;;;;;;8.27;7.40;;;23.90;73.80;;;;;;5043696;28;20203;-64
2023/06/27 00:17:37;;;;;;;11.30;8.03;;;23.90;73.70;;;;;;5038718;28;20222;-64
2023/06/27 00:20:05;;;;;;;12.80;8.37;;;23.90;73.90;;;;;;5046351;28;20228;-63
2023/06/27 00:22:39;;;;;;;12.00;7.83;;;23.90;74.90;;;;;;5048734;28;20214;-63
2023/06/27 00:25:09;;;;;;;10.50;7.90;;;23.90;74.30;;;;;;5044376;28;20246;-63
2023/06/27 00:27:37;;;;;;;12.83;7.87;;;23.80;74.40;;;;;;5044735;28;20211;-64
2023/06/27 00:30:08;;;;;;;14.13;7.97;;;23.80;74.70;;;;;;5039061;28;20249;-63
2023/06/27 00:32:35;;;;;;;10.63;7.40;;;23.80;75.10;;;;;;5026075;28;20267;-63
2023/06/27 00:35:02;;;;;;;8.20;7.20;;;23.70;75.40;;;;;;5020013;28;20194;-63
2023/06/27 00:37:29;;;;;;;11.23;7.97;;;23.70;75.60;;;;;;5062893;28;20317;-64
2023/06/27 00:39:56;;;;;;;12.13;7.57;;;23.70;75.80;;;;;;5046026;28;20202;-63
2023/06/27 00:42:23;;;;;;;8.60;7.70;;;23.70;76.00;;;;;;5042047;28;20202;-64
2023/06/27 00:44:50;;;;;;;9.27;7.57;;;23.70;76.10;;;;;;5050071;28;20512;-63
2023/06/27 00:47:18;;;;;;;9.60;8.27;;;23.60;76.20;;;;;;5048422;28;20230;-63
2023/06/27 00:49:45;;;;;;;10.23;8.33;;;23.60;76.50;;;;;;5043249;28;20232;-63
2023/06/27 00:52:13;;;;;;;12.53;8.67;;;23.60;76.80;;;;;;5044312;28;20552;-64
2023/06/27 00:54:40;;;;;;;9.90;7.83;;;23.60;77.10;;;;;;5043911;28;20555;-63
2023/06/27 00:57:07;;;;;;;12.53;8.27;;;23.60;77.30;;;;;;5046313;28;20297;-63
2023/06/27 00:59:37;;;;;;;11.07;8.60;;;23.60;77.60;;;;;;5046707;28;20203;-64
2023/06/27 01:02:04;;;;;;;13.60;8.17;;;23.60;78.50;;;;;;5045410;28;20195;-63
2023/06/27 01:04:31;;;;;;;8.60;7.70;;;23.50;77.90;;;;;;5041544;28;20207;-64
2023/06/27 01:07:09;;;;;;;8.50;7.43;;;23.50;78.10;;;;;;5038143;28;20226;-63
2023/06/27 01:09:36;;;;;;;16.97;8.60;;;23.50;78.30;;;;;;5056258;28;20217;-64
2023/06/27 01:12:09;;;;;;;11.00;8.10;;;23.50;78.30;;;;;;5035831;28;20217;-63
2023/06/27 01:14:40;;;;;;;14.00;7.90;;;23.50;78.40;;;;;;5042733;28;20221;-63
2023/06/27 01:17:08;;;;;;;12.20;7.23;;;23.50;78.50;;;;;;5057811;28;20729;-64
2023/06/27 01:19:36;;;;;;;9.50;8.37;;;23.40;78.70;;;;;;5057374;28;20265;-63
2023/06/27 01:22:07;;;;;;;10.10;8.20;;;23.40;78.90;;;;;;5009095;28;20633;-63
2023/06/27 01:24:36;;;;;;;9.83;7.60;;;23.40;78.90;;;;;;5044090;28;20238;-64
2023/06/27 01:27:04;;;;;;;9.40;8.40;;;23.30;79.00;;;;;;5044173;28;20207;-63
2023/06/27 01:29:35;;;;;;;10.97;8.07;;;23.30;79.20;;;;;;5041038;28;20252;-63
2023/06/27 01:32:14;;;;;;;9.57;8.63;;;23.30;79.50;;;;;;5055826;28;20211;-63
2023/06/27 01:35:06;;;;;;;9.70;7.43;;;23.20;79.80;;;;;;5031139;28;20206;-63
2023/06/27 01:37:55;;;;;;;10.40;8.23;;;23.20;80.00;;;;;;5026973;28;20227;-63
2023/06/27 01:40:27;;;;;;;11.53;8.30;;;23.20;80.20;;;;;;5043760;28;20195;-63
2023/06/27 01:42:59;;;;;;;10.80;8.07;;;23.10;80.20;;;;;;5039757;28;20250;-63
2023/06/27 01:45:28;;;;;;;14.10;8.50;;;23.10;80.20;;;;;;5057263;28;20195;-63
2023/06/27 01:47:57;;;;;;;12.43;8.40;;;23.10;80.20;;;;;;5041309;28;20241;-63
2023/06/27 01:50:26;;;;;;;12.90;9.17;;;23.00;80.30;;;;;;5047055;28;20206;-63
2023/06/27 01:52:53;;;;;;;9.97;8.63;;;22.90;81.10;;;;;;5047045;28;20225;-63
2023/06/27 01:55:23;;;;;;;11.23;8.40;;;22.90;80.60;;;;;;5037106;28;20555;-63
2023/06/27 01:57:50;;;;;;;8.57;7.67;;;22.90;80.90;;;;;;5044780;28;20297;-63
2023/06/27 02:00:18;;;;;;;9.90;7.43;;;22.90;81.20;;;;;;5038398;28;20199;-63
2023/06/27 02:02:47;;;;;;;13.27;6.93;;;22.80;81.40;;;;;;5041187;28;20253;-63
2023/06/27 02:05:14;;;;;;;7.97;7.17;;;22.90;81.70;;;;;;5025568;28;20207;-63
2023/06/27 02:07:42;;;;;;;8.33;7.53;;;22.80;81.90;;;;;;5036122;28;20198;-63
2023/06/27 02:10:09;;;;;;;10.33;7.70;;;22.80;82.10;;;;;;5032509;28;20749;-63
2023/06/27 02:12:39;;;;;;;11.97;7.27;;;22.80;82.20;;;;;;5025753;28;20645;-63
2023/06/27 02:15:06;;;;;;;10.93;7.97;;;22.80;82.40;;;;;;5045363;28;20244;-63
2023/06/27 02:17:34;;;;;;;8.77;7.20;;;22.80;82.40;;;;;;5024858;28;20316;-63
2023/06/27 02:20:01;;;;;;;14.20;8.33;;;22.80;82.40;;;;;;5041476;28;20638;-63
2023/06/27 02:22:28;;;;;;;10.53;7.90;;;22.70;82.60;;;;;;5044725;28;20203;-63
2023/06/27 02:24:55;;;;;;;9.27;8.17;;;22.70;82.80;;;;;;5043860;28;20273;-65
2023/06/27 02:27:22;;;;;;;10.53;8.60;;;22.70;83.70;;;;;;5043535;28;20194;-64
2023/06/27 02:29:49;;;;;;;10.80;8.70;;;22.70;83.20;;;;;;5031241;28;20586;-63
2023/06/27 02:32:16;;;;;;;12.17;9.50;;;22.60;83.30;;;;;;5031492;28;20285;-63
2023/06/27 02:34:43;;;;;;;12.57;9.23;;;22.60;83.50;;;;;;5042248;28;20714;-63
2023/06/27 02:37:12;;;;;;;11.00;9.30;;;22.60;83.60;;;;;;5031443;28;20591;-63
2023/06/27 02:39:41;;;;;;;13.33;9.67;;;22.60;83.80;;;;;;5042612;28;20206;-63
2023/06/27 02:42:11;;;;;;;9.37;8.47;;;22.60;84.00;;;;;;5020948;28;20203;-63
2023/06/27 02:44:40;;;;;;;11.83;8.37;;;22.60;84.20;;;;;;5041862;28;20206;-63
2023/06/27 02:47:07;;;;;;;8.17;7.37;;;22.60;84.20;;;;;;5030451;28;20704;-64
2023/06/27 02:49:34;;;;;;;11.27;8.47;;;22.50;84.10;;;;;;5043095;28;20199;-63
2023/06/27 02:52:01;;;;;;;13.67;9.27;;;22.60;84.10;;;;;;5040441;28;20638;-63
2023/06/27 02:54:32;;;;;;;10.73;8.20;;;22.50;84.20;;;;;;5023069;28;20226;-63
2023/06/27 02:56:59;;;;;;;11.50;8.93;;;22.50;84.30;;;;;;5043364;28;20228;-63
2023/06/27 02:59:26;;;;;;;9.27;7.93;;;22.40;84.40;;;;;;5030730;28;20637;-63
2023/06/27 03:01:56;;;;;;;11.03;8.63;;;22.40;84.70;;;;;;5039946;28;20195;-63
2023/06/27 03:04:24;;;;;;;11.03;8.17;;;22.40;84.80;;;;;;5030458;28;20253;-63
2023/06/27 03:06:52;;;;;;;10.03;7.93;;;22.30;84.80;;;;;;5054791;28;20213;-63
2023/06/27 03:09:19;;;;;;;8.97;7.70;;;22.40;85.00;;;;;;5029294;28;20191;-63
2023/06/27 03:11:46;;;;;;;12.87;8.73;;;22.40;85.00;;;;;;5031840;28;20203;-63
2023/06/27 03:14:20;;;;;;;11.97;8.23;;;22.30;85.00;;;;;;5030585;28;20203;-64
2023/06/27 03:16:50;;;;;;;8.27;7.37;;;22.30;85.20;;;;;;5056947;28;20214;-63
2023/06/27 03:19:18;;;;;;;10.43;8.57;;;22.30;85.40;;;;;;5027581;28;20646;-63
2023/06/27 03:22:00;;;;;;;11.73;9.80;;;22.20;85.50;;;;;;5040468;28;20257;-63
2023/06/27 03:24:29;;;;;;;10.57;9.50;;;22.20;85.60;;;;;;5028995;28;20242;-63
2023/06/27 03:26:56;;;;;;;11.73;9.00;;;22.20;85.70;;;;;;5056687;28;20253;-63
2023/06/27 03:29:23;;;;;;;13.47;9.27;;;22.20;85.80;;;;;;5022349;28;20691;-63
2023/06/27 03:31:51;;;;;;;10.23;9.00;;;22.20;86.10;;;;;;5022639;28;20239;-63
2023/06/27 03:34:19;;;;;;;10.07;8.73;;;22.10;86.20;;;;;;5055773;28;20727;-63
2023/06/27 03:36:46;;;;;;;10.80;9.20;;;22.10;86.40;;;;;;5054580;28;20199;-64
2023/06/27 03:39:13;;;;;;;10.10;9.10;;;22.10;86.50;;;;;;5052111;28;20297;-64
2023/06/27 03:41:41;;;;;;;10.03;8.67;;;22.10;86.60;;;;;;5019631;28;20202;-63
2023/06/27 03:44:10;;;;;;;11.37;9.43;;;22.10;86.60;;;;;;5028114;28;20612;-64
2023/06/27 03:46:38;;;;;;;9.30;8.40;;;22.10;86.60;;;;;;5019149;28;20635;-63
2023/06/27 03:49:05;;;;;;;10.43;8.60;;;22.10;86.40;;;;;;5025286;28;20218;-63
2023/06/27 03:51:33;;;;;;;11.37;10.17;;;22.00;86.00;;;;;;5021682;28;20289;-65
2023/06/27 03:54:06;;;;;;;13.50;8.93;;;22.00;86.10;;;;;;5030565;28;20239;-64
2023/06/27 03:56:35;;;;;;;11.00;9.30;;;22.00;86.40;;;;;;5030550;28;20230;-63
2023/06/27 03:59:03;;;;;;;10.17;9.17;;;21.90;86.60;;;;;;5021656;28;20222;-64
2023/06/27 04:01:30;;;;;;;10.33;9.23;;;22.00;86.90;;;;;;5054349;28;20199;-63
2023/06/27 04:03:59;;;;;;;10.73;9.63;;;22.00;87.10;;;;;;5060058;28;20195;-64
2023/06/27 04:06:26;;;;;;;10.87;9.77;;;22.00;87.20;;;;;;5029843;28;20210;-63
2023/06/27 04:08:53;;;;;;;10.57;9.47;;;22.00;87.20;;;;;;5038557;28;20214;-63
2023/06/27 04:11:22;;;;;;;16.20;10.20;;;22.10;87.40;;;;;;5025258;28;20619;-63
2023/06/27 04:13:53;;;;;;;10.50;8.63;;;22.10;87.50;;;;;;5029975;28;20247;-63
2023/06/27 04:16:21;;;;;;;11.73;9.17;;;22.10;87.50;;;;;;5030289;28;20725;-63
2023/06/27 04:18:48;;;;;;;12.53;8.80;;;22.10;87.50;;;;;;5022173;28;20697;-63
2023/06/27 04:21:15;;;;;;;10.07;8.93;;;22.20;87.50;;;;;;5052568;28;20203;-64
2023/06/27 04:23:44;;;;;;;11.13;8.27;;;22.20;87.50;;;;;;5026636;28;20310;-63
2023/06/27 04:26:17;;;;;;;10.10;8.63;;;22.20;87.60;;;;;;5040308;28;20232;-63
2023/06/27 04:28:47;;;;;;;10.80;8.77;;;22.30;88.30;;;;;;5045498;28;20276;-63
2023/06/27 04:31:14;;;;;;;11.57;9.07;;;22.30;87.60;;;;;;5040766;28;20207;-63
2023/06/27 04:33:41;;;;;;;9.63;8.73;;;22.30;87.70;;;;;;5043473;28;20665;-64
2023/06/27 04:36:10;;;;;;;11.07;8.40;;;22.40;87.70;;;;;;5042965;28;20238;-63
2023/06/27 04:38:38;;;;;;;9.30;8.40;;;22.50;87.70;;;;;;5045806;28;20298;-63
2023/06/27 04:41:09;;;;;;;12.20;9.13;;;22.50;87.80;;;;;;5045617;28;20714;-63
2023/06/27 04:43:39;;;;;;;10.00;8.60;;;22.60;87.80;;;;;;5049310;28;20276;-63
2023/06/27 04:46:06;;;;;;;9.83;8.60;;;22.70;87.70;;;;;;5026316;28;20203;-63
2023/06/27 04:48:33;;;;;;;11.27;9.10;;;22.80;87.60;;;;;;5044296;28;20272;-65
2023/06/27 04:51:01;;;;;;;12.77;10.27;;;22.80;87.10;;;;;;5045643;28;20198;-63
2023/06/27 04:53:30;;;;;;;11.47;8.90;;;22.90;86.90;;;;;;5043038;28;20862;-63
2023/06/27 04:55:57;;;;;;;12.97;11.00;;;23.00;87.00;;;;;;5040951;28;20577;-63
2023/06/27 04:58:24;;;;;;;10.97;9.87;;;23.00;87.20;;;;;;5030370;28;20207;-63
2023/06/27 05:00:56;;;;;;;12.90;10.07;;;23.10;86.90;;;;;;5043321;28;20282;-63
2023/06/27 05:03:23;;;;;;;13.23;10.23;;;23.20;87.00;;;;;;5037196;28;20195;-63
2023/06/27 05:05:50;;;;;;;15.37;11.13;;;23.30;86.80;;;;;;5042372;28;20858;-63
2023/06/27 05:08:17;;;;;;;16.27;12.13;;;23.40;86.70;;;;;;5040661;28;20218;-63
2023/06/27 05:10:44;;;;;;;14.80;11.97;;;23.50;86.50;;;;;;5044467;28;20202;-63
2023/06/27 05:13:15;;;;;;;16.70;12.10;;;23.60;86.90;;;;;;5045838;28;20206;-63
2023/06/27 05:15:42;;;;;;;19.50;12.03;;;23.60;86.10;;;;;;5042430;28;20553;-63
2023/06/27 05:18:14;;;;;;;19.07;13.00;;;23.70;86.10;;;;;;5036168;28;20221;-63
2023/06/27 05:20:42;;;;;;;17.00;13.00;;;23.80;85.90;;;;;;5048558;28;20575;-64
2023/06/27 05:23:09;;;;;;;14.50;12.67;;;23.90;85.70;;;;;;5043372;28;20194;-63
2023/06/27 05:25:39;;;;;;;15.67;13.10;;;24.00;85.60;;;;;;5042639;28;20242;-64
2023/06/27 05:28:08;;;;;;;20.43;11.83;;;24.20;85.40;;;;;;5040299;28;20638;-63
2023/06/27 05:30:34;;;;;;;13.30;11.93;;;24.30;84.90;;;;;;5041346;28;20290;-65
2023/06/27 05:33:02;;;;;;;14.83;12.00;;;24.40;84.30;;;;;;5043583;28;20207;-63
2023/06/27 05:35:29;;;;;;;12.13;10.63;;;24.50;84.00;;;;;;5042529;28;20222;-64
2023/06/27 05:37:56;;;;;;;17.27;11.37;;;24.60;83.60;;;;;;5045729;28;20257;-63
2023/06/27 05:40:24;;;;;;;14.37;10.70;;;24.70;83.50;;;;;;5044173;28;20202;-66
2023/06/27 05:42:51;;;;;;;13.27;10.10;;;24.90;83.00;;;;;;5043635;28;20634;-63
2023/06/27 05:45:18;;;;;;;12.07;10.00;;;25.00;82.50;;;;;;5041548;28;20290;-63
2023/06/27 05:47:45;;;;;;;12.90;9.57;;;25.10;82.20;;;;;;5042034;28;20204;-64
2023/06/27 05:50:12;;;;;;;13.80;10.77;;;25.30;81.10;;;;;;5039138;28;20207;-63
2023/06/27 05:52:39;;;;;;;15.23;11.53;;;25.40;80.80;;;;;;5038879;28;20229;-63
2023/06/27 05:55:07;;;;;;;11.80;10.27;;;25.50;80.60;;;;;;5040275;28;20212;-64
2023/06/27 05:57:34;;;;;;;10.77;9.57;;;25.60;80.40;;;;;;5047344;28;20238;-63
2023/06/27 06:00:01;;;;;;;14.37;10.27;;;25.70;80.30;;;;;;5008880;28;20540;-63
2023/06/27 06:02:38;;;;;;;12.40;9.07;;;25.80;80.10;;;;;;5043834;28;21284;-63
2023/06/27 06:05:07;;;;;;;14.60;10.47;;;25.90;79.80;;;;;;5042446;28;20221;-64
2023/06/27 06:07:34;;;;;;;18.03;11.37;;;26.00;79.50;;;;;;5027513;28;20203;-64
2023/06/27 06:10:02;;;;;;;14.73;11.70;;;26.10;78.80;;;;;;5042920;28;20573;-63
2023/06/27 06:12:30;;;;;;;14.47;11.07;;;26.20;78.30;;;;;;5044421;28;20198;-63
2023/06/27 06:14:57;;;;;;;17.40;11.37;;;26.30;77.60;;;;;;5031378;28;20221;-63
2023/06/27 06:17:24;;;;;;;20.50;11.30;;;26.30;77.40;;;;;;5042443;28;20532;-63
2023/06/27 06:19:51;;;;;;;16.83;10.77;;;26.40;77.00;;;;;;5047587;28;20233;-64
2023/06/27 06:22:18;;;;;;;12.83;11.23;;;26.50;77.10;;;;;;5043580;28;20199;-64
2023/06/27 06:24:47;;;;;;;13.37;11.13;;;26.50;77.40;;;;;;5039686;28;20240;-65
2023/06/27 06:27:17;;;;;;;14.47;10.93;;;26.60;77.00;;;;;;5042364;28;20194;-63
2023/06/27 06:29:46;;;;;;;17.63;12.30;;;26.70;76.60;;;;;;5035702;28;20275;-64
2023/06/27 06:32:13;;;;;;;14.97;10.53;;;26.90;76.00;;;;;;5038270;28;20288;-63
2023/06/27 06:34:40;;;;;;;13.33;10.90;;;27.00;75.70;;;;;;5042676;28;20220;-64
2023/06/27 06:37:07;;;;;;;11.73;10.23;;;27.10;75.40;;;;;;5043123;28;20204;-64
2023/06/27 06:39:35;;;;;;;12.53;11.23;;;27.30;75.20;;;;;;5039596;28;20693;-64
2023/06/27 06:42:03;;;;;;;12.63;11.03;;;27.40;74.90;;;;;;5046663;28;20206;-64
2023/06/27 06:44:30;;;;;;;13.63;11.20;;;27.60;74.90;;;;;;5042924;28;20569;-63
2023/06/27 06:46:58;;;;;;;13.13;10.90;;;27.70;73.60;;;;;;5043017;28;20213;-63
2023/06/27 06:49:25;;;;;;;15.23;10.13;;;27.80;73.50;;;;;;5039226;28;20294;-63
2023/06/27 06:51:53;;;;;;;13.93;11.33;;;27.90;73.80;;;;;;5043165;28;20275;-63
2023/06/27 06:54:22;;;;;;;12.87;11.00;;;28.00;73.60;;;;;;5040912;28;20286;-65
2023/06/27 06:56:49;;;;;;;14.83;11.07;;;28.20;72.90;;;;;;5043297;28;20202;-64
2023/06/27 06:59:16;;;;;;;18.07;11.03;;;28.30;71.70;;;;;;5042723;28;20657;-64
2023/06/27 07:01:43;;;;;;;17.27;11.13;;;28.30;71.30;;;;;;5041532;28;20592;-64
2023/06/27 07:04:11;;;;;;;13.53;11.20;;;28.40;71.00;;;;;;5052409;28;20590;-64
2023/06/27 07:06:38;;;;;;;13.63;12.27;;;28.60;71.00;;;;;;5035502;28;20187;-64
2023/06/27 07:09:05;;;;;;;12.97;10.80;;;28.60;70.00;;;;;;5037381;28;20199;-63
2023/06/27 07:11:32;;;;;;;11.67;10.53;;;28.70;69.90;;;;;;5042188;28;20205;-64
2023/06/27 07:14:01;;;;;;;10.47;9.40;;;28.80;70.20;;;;;;5042204;28;20390;-63
2023/06/27 07:16:28;;;;;;;10.60;9.60;;;28.80;70.50;;;;;;5040399;28;20199;-63
2023/06/27 07:18:55;;;;;;;14.10;10.43;;;29.00;70.90;;;;;;5039801;28;20229;-64
2023/06/27 07:21:23;;;;;;;13.67;9.83;;;29.20;70.30;;;;;;5040016;28;20198;-63
2023/06/27 07:23:51;;;;;;;10.30;9.20;;;29.50;69.60;;;;;;5042631;28;20203;-64
2023/06/27 07:26:18;;;;;;;12.93;10.23;;;29.70;70.00;;;;;;5017596;28;20218;-64
2023/06/27 07:28:45;;;;;;;15.27;9.43;;;29.90;69.70;;;;;;5050855;28;20677;-64
2023/06/27 07:31:12;;;;;;;12.13;9.70;;;30.00;68.90;;;;;;5045785;28;20213;-64
2023/06/27 07:33:39;;;;;;;15.17;9.43;;;30.20;68.30;;;;;;5042642;28;20203;-64
2023/06/27 07:36:06;;;;;;;10.43;9.33;;;30.40;68.70;;;;;;5040228;28;20206;-64
2023/06/27 07:38:33;;;;;;;12.90;8.87;;;30.50;68.10;;;;;;5040788;28;20227;-63
2023/06/27 07:41:02;;;;;;;14.10;8.63;;;30.70;67.40;;;;;;5037092;28;20195;-64
2023/06/27 07:43:29;;;;;;;11.43;8.47;;;30.80;67.50;;;;;;5038548;28;20289;-64
2023/06/27 07:45:56;;;;;;;13.67;8.60;;;31.00;67.20;;;;;;5048228;28;20741;-64
2023/06/27 07:48:23;;;;;;;9.93;9.03;;;31.10;66.60;;;;;;5042946;28;20633;-64
2023/06/27 07:50:53;;;;;;;10.07;8.77;;;31.30;65.80;;;;;;5045194;28;20210;-64
2023/06/27 07:53:20;;;;;;;12.17;9.93;;;31.40;66.40;;;;;;5043701;28;20206;-64
2023/06/27 07:55:47;;;;;;;11.27;10.07;;;31.50;65.50;;;;;;5044214;28;20214;-64
2023/06/27 07:58:14;;;;;;;20.27;9.63;;;31.50;65.00;;;;;;5043391;28;20202;-64
2023/06/27 08:00:41;;;;;;;9.20;8.30;;;31.60;65.90;;;;;;5047952;28;20211;-65
2023/06/27 08:03:09;;;;;;;10.33;9.33;;;31.70;65.80;;;;;;5042564;28;20252;-64
2023/06/27 08:05:38;;;;;;;10.43;9.33;;;31.90;65.50;;;;;;5047170;28;20211;-64
2023/06/27 08:08:07;;;;;;;11.93;8.83;;;32.00;64.60;;;;;;5053036;28;20215;-64
2023/06/27 08:10:35;;;;;;;13.40;8.93;;;32.10;64.50;;;;;;5046095;28;20680;-64
2023/06/27 08:13:02;;;;;;;11.13;9.70;;;32.20;63.80;;;;;;5030728;28;20206;-64
2023/06/27 08:15:29;;;;;;;13.33;8.97;;;32.30;62.70;;;;;;5045689;28;20209;-63
2023/06/27 08:17:57;;;;;;;11.40;8.40;;;32.40;62.40;;;;;;5043406;28;20208;-64
2023/06/27 08:20:24;;;;;;;11.17;9.10;;;32.50;62.70;;;;;;5041631;28;20253;-63
2023/06/27 08:22:51;;;;;;;9.83;8.67;;;32.60;62.40;;;;;;5043964;28;20570;-64
2023/06/27 08:25:18;;;;;;;9.43;8.50;;;32.80;61.80;;;;;;5029516;28;20234;-64
2023/06/27 08:27:45;;;;;;;9.50;8.70;;;32.80;61.50;;;;;;5042420;28;20195;-64
2023/06/27 08:30:12;;;;;;;9.27;8.30;;;32.90;61.40;;;;;;5031229;28;20195;-64
2023/06/27 08:32:39;;;;;;;9.83;8.80;;;33.10;61.50;;;;;;5041456;28;20229;-64
2023/06/27 08:35:07;;;;;;;11.03;8.27;;;33.20;61.30;;;;;;5043179;28;20220;-64
2023/06/27 08:37:34;;;;;;;13.47;7.93;;;33.30;60.30;;;;;;5047727;28;20269;-64
2023/06/27 08:40:01;;;;;;;9.33;8.43;;;33.30;59.80;;;;;;5040346;28;20220;-64
2023/06/27 08:42:31;;;;;;;8.77;6.97;;;33.40;59.10;;;;;;5041734;28;20200;-64
2023/06/27 08:44:59;;;;;;;10.13;7.50;;;33.50;59.00;;;;;;5044511;28;20633;-64
2023/06/27 08:47:29;;;;;;;10.60;7.23;;;33.60;59.10;;;;;;5043904;28;20220;-64
2023/06/27 08:50:03;;;;;;;9.40;7.20;;;33.80;58.70;;;;;;5044283;28;20217;-64
2023/06/27 08:52:43;;;;;;;12.50;7.57;;;33.90;58.50;;;;;;5039109;28;20201;-64
2023/06/27 08:55:46;;;;;;;9.77;6.73;;;34.00;58.50;;;;;;5045281;28;20597;-65
2023/06/27 08:58:15;;;;;;;12.77;6.70;;;34.10;57.70;;;;;;5030308;28;20264;-64
2023/06/27 09:00:44;;;;;;;9.27;8.30;;;34.10;57.30;;;;;;5040584;28;20690;-66
2023/06/27 09:03:11;;;;;;;8.10;7.30;;;34.10;57.40;;;;;;5049657;28;20238;-64
2023/06/27 09:05:40;;;;;;;8.33;7.53;;;34.10;57.60;;;;;;5039373;28;20628;-64
2023/06/27 09:08:08;;;;;;;7.87;6.80;;;34.20;56.90;;;;;;5024645;28;20567;-64
2023/06/27 09:10:35;;;;;;;9.13;8.23;;;34.20;56.70;;;;;;5040513;28;20209;-64
2023/06/27 09:13:02;;;;;;;8.87;7.40;;;34.30;56.60;;;;;;5044099;28;20711;-64
2023/06/27 09:15:29;;;;;;;8.40;7.03;;;34.50;56.40;;;;;;5042857;28;20213;-66
2023/06/27 09:17:56;;;;;;;8.57;7.77;;;34.60;56.20;;;;;;5040705;28;20242;-65
2023/06/27 09:20:24;;;;;;;11.23;7.27;;;34.60;55.10;;;;;;5040645;28;20556;-66
2023/06/27 09:22:52;;;;;;;9.40;7.37;;;34.70;55.40;;;;;;5046025;28;20198;-64
2023/06/27 09:25:24;;;;;;;12.20;7.80;;;34.60;55.80;;;;;;4994900;28;1409933;-65
2023/06/27 09:27:51;;;;;;;9.35;7.57;;;34.70;55.40;;;;;;5043512;28;20229;-65
2023/06/27 09:30:21;;;;;;;8.57;7.70;;;34.80;53.80;;;;;;5042619;28;20276;-66
2023/06/27 09:32:59;;;;;;;10.52;7.63;;;34.70;54.50;;;;;;5041555;28;20752;-65
2023/06/27 09:35:31;;;;;;;8.25;7.07;;;34.80;54.10;;;;;;5022666;28;20206;-64
2023/06/27 09:38:08;;;;;;;9.27;6.20;;;34.80;54.70;;;;;;5045188;28;20252;-67
2023/06/27 09:40:38;;;;;;;9.07;6.67;;;34.90;55.00;;;;;;5045651;28;20517;-64
2023/06/27 09:43:07;;;;;;;7.53;6.63;;;35.10;54.30;;;;;;5045023;28;20209;-66
2023/06/27 09:45:34;;;;;;;10.63;6.80;;;35.30;54.00;;;;;;5048767;28;20272;-68
2023/06/27 09:48:01;;;;;;;9.80;7.70;;;35.50;53.80;;;;;;5044548;28;20242;-67
2023/06/27 09:50:30;;;;;;;8.80;7.75;;;35.70;53.80;;;;;;5024824;28;20257;-68
2023/06/27 09:53:02;;;;;;;13.77;7.15;;;35.80;53.80;;;;;;5037845;28;20717;-67
2023/06/27 09:55:30;;;;;;;10.45;6.85;;;36.00;53.50;;;;;;5041780;28;20202;-66
2023/06/27 09:57:57;;;;;;;8.15;7.35;;;36.10;53.50;;;;;;5040397;28;20199;-66
2023/06/27 10:00:28;;;;;;;9.60;7.82;;;36.20;53.70;;;;;;5042719;28;20657;-66
2023/06/27 10:02:56;;;;;;;9.15;7.00;;;36.30;53.50;;;;;;5045951;28;20210;-66
2023/06/27 10:05:23;;;;;;;7.32;6.55;;;36.30;52.90;;;;;;5024641;28;20555;-65
2023/06/27 10:07:53;;;;;;;8.70;6.75;;;36.30;52.80;;;;;;5039355;28;20218;-66
2023/06/27 10:10:24;;;;;;;9.90;7.20;;;36.30;53.10;;;;;;5040133;28;20202;-65
2023/06/27 10:12:52;;;;;;;9.98;7.30;;;36.20;52.50;;;;;;5045291;28;20525;-67
2023/06/27 10:15:19;;;;;;;9.48;6.93;;;36.10;52.50;;;;;;5047662;28;20253;-65
2023/06/27 10:17:47;;;;;;;7.90;7.20;;;36.00;52.70;;;;;;5043429;28;20215;-69
2023/06/27 10:20:14;;;;;;;9.13;7.03;;;35.80;53.60;;;;;;5047127;28;20555;-68
2023/06/27 10:22:44;;;;;;;9.60;7.57;;;35.80;54.40;;;;;;5025250;28;20211;-66
2023/06/27 10:25:11;;;;;;;13.20;8.10;;;35.90;54.60;;;;;;5041569;28;20321;-66
2023/06/27 10:27:39;;;;;;;9.75;7.38;;;36.00;53.40;;;;;;5041998;28;20203;-66
2023/06/27 10:30:37;;;;;;;8.68;7.65;;;36.10;53.00;;;;;;5040618;28;20217;-68
2023/06/27 10:33:09;;;;;;;8.20;7.40;;;36.00;53.60;;;;;;5042960;28;20548;-65
2023/06/27 10:35:49;;;;;;;12.85;8.00;;;35.90;54.00;;;;;;5042625;28;20206;-66
2023/06/27 10:38:18;;;;;;;10.50;8.23;;;35.70;54.70;;;;;;5041420;28;20203;-64
2023/06/27 10:41:02;;;;;;;9.55;7.45;;;35.60;53.80;;;;;;5043504;28;20539;-65
2023/06/27 10:43:45;;;;;;;10.82;7.40;;;35.50;54.10;;;;;;5044646;28;20635;-68
2023/06/27 10:46:22;;;;;;;7.90;7.20;;;35.60;54.20;;;;;;5025057;28;20653;-65
2023/06/27 10:49:06;;;;;;;8.35;7.40;;;35.80;54.90;;;;;;5043312;28;20722;-66
2023/06/27 10:51:43;;;;;;;8.10;7.35;;;36.10;54.20;;;;;;5030224;28;20234;-67
2023/06/27 10:54:15;;;;;;;7.85;7.05;;;36.20;53.60;;;;;;5043084;28;20234;-66
2023/06/27 10:56:50;;;;;;;13.05;7.45;;;36.20;53.90;;;;;;5046976;28;20202;-66
2023/06/27 10:59:19;;;;;;;7.60;6.90;;;36.30;53.30;;;;;;5040340;28;20218;-68
2023/06/27 11:02:04;;;;;;;9.80;6.78;;;36.20;53.40;;;;;;5042532;28;20544;-67
2023/06/27 11:04:43;;;;;;;10.93;7.22;;;36.20;52.90;;;;;;5041340;28;20221;-66
2023/06/27 11:07:19;;;;;;;8.20;7.05;;;36.20;52.40;;;;;;5037125;28;20202;-67
2023/06/27 11:09:52;;;;;;;8.18;6.80;;;36.20;52.50;;;;;;5039391;28;20207;-68
2023/06/27 11:12:21;;;;;;;8.77;6.22;;;36.30;52.10;;;;;;5031499;28;20641;-65
2023/06/27 11:14:53;;;;;;;6.93;6.22;;;36.40;52.50;;;;;;5033441;28;20207;-64
2023/06/27 11:17:23;;;;;;;7.95;6.90;;;36.60;52.90;;;;;;5039514;28;20286;-64
2023/06/27 11:19:51;;;;;;;7.65;6.18;;;36.80;52.40;;;;;;5037997;28;20245;-65
2023/06/27 11:22:18;;;;;;;9.88;6.20;;;37.00;52.10;;;;;;5047098;28;20272;-66
2023/06/27 11:24:46;;;;;;;7.03;6.32;;;37.10;50.10;;;;;;5047913;28;20230;-65
2023/06/27 11:27:13;;;;;;;11.20;6.28;;;37.00;49.30;;;;;;5026699;28;20198;-68
2023/06/27 11:29:42;;;;;;;7.28;6.38;;;37.00;49.60;;;;;;5048723;28;20237;-67
2023/06/27 11:32:09;;;;;;;9.18;6.30;;;37.00;49.30;;;;;;5048339;28;20198;-67
2023/06/27 11:34:41;;;;;;;7.70;5.95;;;37.00;49.30;;;;;;5061548;28;20257;-66
2023/06/27 11:37:11;;;;;;;12.57;6.40;;;37.00;49.70;;;;;;5047931;28;20199;-67
2023/06/27 11:39:38;;;;;;;7.45;6.30;;;36.90;50.20;;;;;;5036038;28;20306;-67
2023/06/27 11:42:08;;;;;;;7.13;6.50;;;36.80;50.80;;;;;;5043860;28;20202;-67
2023/06/27 11:44:35;;;;;;;10.00;7.50;;;36.80;51.00;;;;;;5049969;28;20207;-67
2023/06/27 11:47:06;;;;;;;8.27;7.53;;;36.80;51.30;;;;;;5045194;28;20597;-67
2023/06/27 11:49:35;;;;;;;8.40;6.88;;;36.80;51.40;;;;;;5045372;28;20203;-66
2023/06/27 11:52:02;;;;;;;10.10;7.35;;;36.70;50.70;;;;;;5033968;28;20713;-67
2023/06/27 11:54:29;;;;;;;7.18;6.47;;;36.50;51.20;;;;;;5032065;28;20207;-67
2023/06/27 11:57:03;;;;;;;15.10;6.88;;;36.50;51.80;;;;;;5045727;28;20238;-66
2023/06/27 11:59:32;;;;;;;7.90;7.20;;;36.40;51.90;;;;;;5047027;28;20230;-66
2023/06/27 12:02:02;;;;;;;7.80;7.03;;;36.40;52.10;;;;;;5046051;28;20214;-66
2023/06/27 12:04:32;;;;;;;8.10;6.97;;;36.40;51.50;;;;;;5045142;28;20286;-66
2023/06/27 12:07:17;;;;;;;10.93;7.47;;;36.40;51.80;;;;;;5046538;28;20261;-66
2023/06/27 12:09:44;;;;;;;9.43;7.13;;;36.40;53.30;;;;;;5041254;28;20206;-66
2023/06/27 12:12:11;;;;;;;7.82;6.15;;;36.30;52.00;;;;;;5032711;28;20199;-66
2023/06/27 12:14:38;;;;;;;8.20;7.50;;;36.10;52.90;;;;;;5059326;28;20650;-67
2023/06/27 12:17:20;;;;;;;6.65;6.07;;;36.00;54.10;;;;;;5024953;28;20214;-67
2023/06/27 12:19:50;;;;;;;7.30;6.60;;;35.90;55.60;;;;;;5039492;28;20226;-66
2023/06/27 12:22:17;;;;;;;8.68;7.18;;;35.80;56.90;;;;;;5045537;28;20253;-67
2023/06/27 12:24:44;;;;;;;7.80;7.10;;;35.80;55.90;;;;;;5045194;28;20322;-66
2023/06/27 12:27:12;;;;;;;8.13;6.95;;;35.90;55.10;;;;;;5050833;28;20198;-67
2023/06/27 12:29:39;;;;;;;9.05;7.22;;;36.10;54.50;;;;;;5055499;28;20529;-66
2023/06/27 12:32:06;;;;;;;7.38;6.63;;;36.30;54.30;;;;;;5043505;28;20202;-67
2023/06/27 12:34:33;;;;;;;7.75;6.95;;;36.30;52.30;;;;;;5047830;28;20549;-67
2023/06/27 12:37:03;;;;;;;7.40;6.70;;;36.40;52.60;;;;;;5044968;28;20708;-66
2023/06/27 12:39:33;;;;;;;8.80;6.20;;;36.40;51.90;;;;;;5042131;28;20207;-68
2023/06/27 12:42:00;;;;;;;6.93;6.32;;;36.30;52.70;;;;;;5037221;28;20206;-69
2023/06/27 12:44:27;;;;;;;7.57;6.88;;;36.40;52.60;;;;;;5046553;28;20291;-65
2023/06/27 12:46:54;;;;;;;7.10;6.40;;;36.40;52.70;;;;;;5046086;28;20277;-65